sensor_id;sensor_type;location;lat;lon;timestamp;temperature;humidity
8220;DHT22;4151;51.110;7.020;2023-04-16T00:00:06;7.90;99.90
8220;DHT22;4151;51.110;7.020;2023-04-16T00:02:32;8.00;99.90
8220;DHT22;4151;51.110;7.020;2023-04-16T00:04:58;8.00;99.90
8220;DHT22;4151;51.110;7.020;2023-04-16T00:07:24;8.00;99.90
8220;DHT22;4151;51.110;7.020;2023-04-16T00:09:49;8.00;99.90
8220;DHT22;4151;51.110;7.020;2023-04-16T00:12:15;8.00;99.90
8220;DHT22;4151;51.110;7.020;2023-04-16T00:14:41;8.00;99.90
8220;DHT22;4151;51.110;7.020;2023-04-16T00:17:08;8.00;99.90
8220;DHT22;4151;51.110;7.020;2023-04-16T00:19:34;8.00;99.90
8220;DHT22;4151;51.110;7.020;2023-04-16T00:21:59;8.00;99.90
8220;DHT22;4151;51.110;7.020;2023-04-16T00:24:25;8.00;99.90
8220;DHT22;4151;51.110;7.020;2023-04-16T00:26:50;8.00;99.90
8220;DHT22;4151;51.110;7.020;2023-04-16T00:29:16;8.00;99.90
8220;DHT22;4151;51.110;7.020;2023-04-16T00:31:42;8.00;99.90
8220;DHT22;4151;51.110;7.020;2023-04-16T00:34:07;8.00;99.90
8220;DHT22;4151;51.110;7.020;2023-04-16T00:36:33;8.00;99.90
8220;DHT22;4151;51.110;7.020;2023-04-16T00:38:58;7.90;99.90
8220;DHT22;4151;51.110;7.020;2023-04-16T00:41:24;7.90;99.90
8220;DHT22;4151;51.110;7.020;2023-04-16T00:43:51;7.90;99.90
8220;DHT22;4151;51.110;7.020;2023-04-16T00:46:18;8.00;99.90
8220;DHT22;4151;51.110;7.020;2023-04-16T00:48:44;7.90;99.90
8220;DHT22;4151;51.110;7.020;2023-04-16T00:51:10;7.90;99.90
8220;DHT22;4151;51.110;7.020;2023-04-16T00:53:36;7.90;99.90
8220;DHT22;4151;51.110;7.020;2023-04-16T00:56:03;7.80;99.90
8220;DHT22;4151;51.110;7.020;2023-04-16T00:58:30;7.80;99.90
8220;DHT22;4151;51.110;7.020;2023-04-16T01:00:55;7.80;99.90
8220;DHT22;4151;51.110;7.020;2023-04-16T01:03:22;7.80;99.90
8220;DHT22;4151;51.110;7.020;2023-04-16T01:05:48;7.80;99.90
8220;DHT22;4151;51.110;7.020;2023-04-16T01:08:18;7.80;99.90
8220;DHT22;4151;51.110;7.020;2023-04-16T01:10:44;7.80;99.90
8220;DHT22;4151;51.110;7.020;2023-04-16T01:13:10;7.80;99.90
8220;DHT22;4151;51.110;7.020;2023-04-16T01:15:36;7.90;99.90
8220;DHT22;4151;51.110;7.020;2023-04-16T01:18:11;7.90;99.90
8220;DHT22;4151;51.110;7.020;2023-04-16T01:20:37;7.90;99.90
8220;DHT22;4151;51.110;7.020;2023-04-16T01:23:02;7.90;99.90
8220;DHT22;4151;51.110;7.020;2023-04-16T01:25:28;8.00;99.90
8220;DHT22;4151;51.110;7.020;2023-04-16T01:27:53;8.00;99.90
8220;DHT22;4151;51.110;7.020;2023-04-16T01:30:21;8.00;99.90
8220;DHT22;4151;51.110;7.020;2023-04-16T01:32:47;7.90;99.90
8220;DHT22;4151;51.110;7.020;2023-04-16T01:35:12;8.00;99.90
8220;DHT22;4151;51.110;7.020;2023-04-16T01:37:38;8.00;99.90
8220;DHT22;4151;51.110;7.020;2023-04-16T01:40:04;7.90;99.90
8220;DHT22;4151;51.110;7.020;2023-04-16T01:42:29;8.00;99.90
8220;DHT22;4151;51.110;7.020;2023-04-16T01:44:55;8.00;99.90
8220;DHT22;4151;51.110;7.020;2023-04-16T01:47:20;8.00;99.90
8220;DHT22;4151;51.110;7.020;2023-04-16T01:49:46;8.00;99.90
8220;DHT22;4151;51.110;7.020;2023-04-16T01:52:12;8.00;99.90
8220;DHT22;4151;51.110;7.020;2023-04-16T01:54:38;8.00;99.90
8220;DHT22;4151;51.110;7.020;2023-04-16T01:57:03;8.00;99.90
8220;DHT22;4151;51.110;7.020;2023-04-16T01:59:29;8.00;99.90
8220;DHT22;4151;51.110;7.020;2023-04-16T02:01:55;8.10;99.90
8220;DHT22;4151;51.110;7.020;2023-04-16T02:04:20;8.00;99.90
8220;DHT22;4151;51.110;7.020;2023-04-16T02:06:46;8.00;99.90
8220;DHT22;4151;51.110;7.020;2023-04-16T02:09:11;8.10;99.90
8220;DHT22;4151;51.110;7.020;2023-04-16T02:11:37;8.10;99.90
8220;DHT22;4151;51.110;7.020;2023-04-16T02:14:02;8.10;99.90
8220;DHT22;4151;51.110;7.020;2023-04-16T02:16:28;8.20;99.90
8220;DHT22;4151;51.110;7.020;2023-04-16T02:18:53;8.10;99.90
8220;DHT22;4151;51.110;7.020;2023-04-16T02:21:19;8.10;99.90
8220;DHT22;4151;51.110;7.020;2023-04-16T02:23:45;8.10;99.90
8220;DHT22;4151;51.110;7.020;2023-04-16T02:26:12;8.10;99.90
8220;DHT22;4151;51.110;7.020;2023-04-16T02:28:38;8.20;99.90
8220;DHT22;4151;51.110;7.020;2023-04-16T02:31:03;8.20;99.90
8220;DHT22;4151;51.110;7.020;2023-04-16T02:33:29;8.10;99.90
8220;DHT22;4151;51.110;7.020;2023-04-16T02:35:56;8.10;99.90
8220;DHT22;4151;51.110;7.020;2023-04-16T02:38:21;8.10;99.90
8220;DHT22;4151;51.110;7.020;2023-04-16T02:40:47;8.10;99.90
8220;DHT22;4151;51.110;7.020;2023-04-16T02:43:12;8.20;99.90
8220;DHT22;4151;51.110;7.020;2023-04-16T02:45:38;8.20;99.90
8220;DHT22;4151;51.110;7.020;2023-04-16T02:48:04;8.20;99.90
8220;DHT22;4151;51.110;7.020;2023-04-16T02:50:31;8.20;99.90
8220;DHT22;4151;51.110;7.020;2023-04-16T02:52:57;8.10;99.90
8220;DHT22;4151;51.110;7.020;2023-04-16T02:55:22;8.10;99.90
8220;DHT22;4151;51.110;7.020;2023-04-16T02:57:48;8.10;99.90
8220;DHT22;4151;51.110;7.020;2023-04-16T03:00:13;8.10;99.90
8220;DHT22;4151;51.110;7.020;2023-04-16T03:02:39;8.10;99.90
8220;DHT22;4151;51.110;7.020;2023-04-16T03:05:05;8.10;99.90
8220;DHT22;4151;51.110;7.020;2023-04-16T03:07:30;8.10;99.90
8220;DHT22;4151;51.110;7.020;2023-04-16T03:09:56;8.00;99.90
8220;DHT22;4151;51.110;7.020;2023-04-16T03:12:22;8.00;99.90
8220;DHT22;4151;51.110;7.020;2023-04-16T03:14:49;8.10;99.90
8220;DHT22;4151;51.110;7.020;2023-04-16T03:17:15;8.10;99.90
8220;DHT22;4151;51.110;7.020;2023-04-16T03:19:41;8.10;99.90
8220;DHT22;4151;51.110;7.020;2023-04-16T03:22:06;8.10;99.90
8220;DHT22;4151;51.110;7.020;2023-04-16T03:24:32;8.10;99.90
8220;DHT22;4151;51.110;7.020;2023-04-16T03:26:57;8.10;99.90
8220;DHT22;4151;51.110;7.020;2023-04-16T03:29:23;8.10;99.90
8220;DHT22;4151;51.110;7.020;2023-04-16T03:31:49;8.10;99.90
8220;DHT22;4151;51.110;7.020;2023-04-16T03:34:14;8.00;99.90
8220;DHT22;4151;51.110;7.020;2023-04-16T03:36:40;8.00;99.90
8220;DHT22;4151;51.110;7.020;2023-04-16T03:39:06;8.10;99.90
8220;DHT22;4151;51.110;7.020;2023-04-16T03:41:32;8.10;99.90
8220;DHT22;4151;51.110;7.020;2023-04-16T03:43:57;8.10;99.90
8220;DHT22;4151;51.110;7.020;2023-04-16T03:46:23;8.10;99.90
8220;DHT22;4151;51.110;7.020;2023-04-16T03:48:48;8.10;99.90
8220;DHT22;4151;51.110;7.020;2023-04-16T03:51:14;8.10;99.90
8220;DHT22;4151;51.110;7.020;2023-04-16T03:53:39;8.10;99.90
8220;DHT22;4151;51.110;7.020;2023-04-16T03:56:05;8.10;99.90
8220;DHT22;4151;51.110;7.020;2023-04-16T03:58:31;8.00;99.90
8220;DHT22;4151;51.110;7.020;2023-04-16T04:00:56;8.00;99.90
8220;DHT22;4151;51.110;7.020;2023-04-16T04:03:22;8.00;99.90
8220;DHT22;4151;51.110;7.020;2023-04-16T04:05:47;8.00;99.90
8220;DHT22;4151;51.110;7.020;2023-04-16T04:08:13;8.10;99.90
8220;DHT22;4151;51.110;7.020;2023-04-16T04:10:38;8.10;99.90
8220;DHT22;4151;51.110;7.020;2023-04-16T04:13:05;8.10;99.90
8220;DHT22;4151;51.110;7.020;2023-04-16T04:15:31;8.10;99.90
8220;DHT22;4151;51.110;7.020;2023-04-16T04:17:57;8.10;99.90
8220;DHT22;4151;51.110;7.020;2023-04-16T04:20:23;8.10;99.90
8220;DHT22;4151;51.110;7.020;2023-04-16T04:22:49;8.10;99.90
8220;DHT22;4151;51.110;7.020;2023-04-16T04:25:16;8.10;99.90
8220;DHT22;4151;51.110;7.020;2023-04-16T04:27:41;8.10;99.90
8220;DHT22;4151;51.110;7.020;2023-04-16T04:30:07;8.10;99.90
8220;DHT22;4151;51.110;7.020;2023-04-16T04:32:33;8.10;99.90
8220;DHT22;4151;51.110;7.020;2023-04-16T04:35:00;8.20;99.90
8220;DHT22;4151;51.110;7.020;2023-04-16T04:37:26;8.20;99.90
8220;DHT22;4151;51.110;7.020;2023-04-16T04:39:51;8.20;99.90
8220;DHT22;4151;51.110;7.020;2023-04-16T04:42:18;8.20;99.90
8220;DHT22;4151;51.110;7.020;2023-04-16T04:44:44;8.20;99.90
8220;DHT22;4151;51.110;7.020;2023-04-16T04:47:09;8.20;99.90
8220;DHT22;4151;51.110;7.020;2023-04-16T04:49:35;8.20;99.90
8220;DHT22;4151;51.110;7.020;2023-04-16T04:52:01;8.20;99.90
8220;DHT22;4151;51.110;7.020;2023-04-16T04:54:30;8.20;99.90
8220;DHT22;4151;51.110;7.020;2023-04-16T04:56:56;8.20;99.90
8220;DHT22;4151;51.110;7.020;2023-04-16T04:59:22;8.20;99.90
8220;DHT22;4151;51.110;7.020;2023-04-16T05:01:48;8.20;99.90
8220;DHT22;4151;51.110;7.020;2023-04-16T05:04:14;8.20;99.90
8220;DHT22;4151;51.110;7.020;2023-04-16T05:06:39;8.20;99.90
8220;DHT22;4151;51.110;7.020;2023-04-16T05:09:05;8.20;99.90
8220;DHT22;4151;51.110;7.020;2023-04-16T05:11:39;8.20;99.90
8220;DHT22;4151;51.110;7.020;2023-04-16T05:14:05;8.20;99.90
8220;DHT22;4151;51.110;7.020;2023-04-16T05:16:30;8.20;99.90
8220;DHT22;4151;51.110;7.020;2023-04-16T05:18:56;8.20;99.90
8220;DHT22;4151;51.110;7.020;2023-04-16T05:21:22;8.30;99.90
8220;DHT22;4151;51.110;7.020;2023-04-16T05:23:48;8.30;99.90
8220;DHT22;4151;51.110;7.020;2023-04-16T05:26:13;8.30;99.90
8220;DHT22;4151;51.110;7.020;2023-04-16T05:28:39;8.30;99.90
8220;DHT22;4151;51.110;7.020;2023-04-16T05:31:04;8.30;99.90
8220;DHT22;4151;51.110;7.020;2023-04-16T05:33:30;8.20;99.90
8220;DHT22;4151;51.110;7.020;2023-04-16T05:35:56;8.30;99.90
8220;DHT22;4151;51.110;7.020;2023-04-16T05:38:21;8.30;99.90
8220;DHT22;4151;51.110;7.020;2023-04-16T05:40:47;8.30;99.90
8220;DHT22;4151;51.110;7.020;2023-04-16T05:43:12;8.40;99.90
8220;DHT22;4151;51.110;7.020;2023-04-16T05:45:38;8.40;99.90
8220;DHT22;4151;51.110;7.020;2023-04-16T05:48:06;8.30;99.90
8220;DHT22;4151;51.110;7.020;2023-04-16T05:50:33;8.40;99.90
8220;DHT22;4151;51.110;7.020;2023-04-16T05:53:00;8.40;99.90
8220;DHT22;4151;51.110;7.020;2023-04-16T05:55:26;8.40;99.90
8220;DHT22;4151;51.110;7.020;2023-04-16T05:57:51;8.40;99.90
8220;DHT22;4151;51.110;7.020;2023-04-16T06:00:17;8.40;99.90
8220;DHT22;4151;51.110;7.020;2023-04-16T06:02:42;8.40;99.90
8220;DHT22;4151;51.110;7.020;2023-04-16T06:05:08;8.40;99.90
8220;DHT22;4151;51.110;7.020;2023-04-16T06:07:33;8.50;99.90
8220;DHT22;4151;51.110;7.020;2023-04-16T06:09:59;8.50;99.90
8220;DHT22;4151;51.110;7.020;2023-04-16T06:12:24;8.40;99.90
8220;DHT22;4151;51.110;7.020;2023-04-16T06:14:50;8.40;99.90
8220;DHT22;4151;51.110;7.020;2023-04-16T06:17:16;8.50;99.90
8220;DHT22;4151;51.110;7.020;2023-04-16T06:19:41;8.50;99.90
8220;DHT22;4151;51.110;7.020;2023-04-16T06:22:07;8.50;99.90
8220;DHT22;4151;51.110;7.020;2023-04-16T06:24:32;8.60;99.90
8220;DHT22;4151;51.110;7.020;2023-04-16T06:26:58;8.60;99.90
8220;DHT22;4151;51.110;7.020;2023-04-16T06:29:23;8.60;99.90
8220;DHT22;4151;51.110;7.020;2023-04-16T06:31:49;8.70;99.90
8220;DHT22;4151;51.110;7.020;2023-04-16T06:34:14;8.70;99.90
8220;DHT22;4151;51.110;7.020;2023-04-16T06:36:40;8.70;99.90
8220;DHT22;4151;51.110;7.020;2023-04-16T06:39:06;8.80;99.90
8220;DHT22;4151;51.110;7.020;2023-04-16T06:41:31;8.80;99.90
8220;DHT22;4151;51.110;7.020;2023-04-16T06:43:57;8.90;99.90
8220;DHT22;4151;51.110;7.020;2023-04-16T06:46:22;9.00;99.90
8220;DHT22;4151;51.110;7.020;2023-04-16T06:48:48;9.00;99.90
8220;DHT22;4151;51.110;7.020;2023-04-16T06:51:13;9.00;99.90
8220;DHT22;4151;51.110;7.020;2023-04-16T06:53:39;9.10;99.90
8220;DHT22;4151;51.110;7.020;2023-04-16T06:56:05;9.10;99.90
8220;DHT22;4151;51.110;7.020;2023-04-16T06:58:31;9.00;99.90
8220;DHT22;4151;51.110;7.020;2023-04-16T07:00:57;9.10;99.90
8220;DHT22;4151;51.110;7.020;2023-04-16T07:03:23;9.10;99.90
8220;DHT22;4151;51.110;7.020;2023-04-16T07:05:49;9.10;99.90
8220;DHT22;4151;51.110;7.020;2023-04-16T07:08:14;9.10;99.90
8220;DHT22;4151;51.110;7.020;2023-04-16T07:10:40;9.10;99.90
8220;DHT22;4151;51.110;7.020;2023-04-16T07:13:05;9.10;99.90
8220;DHT22;4151;51.110;7.020;2023-04-16T07:15:31;9.20;99.90
8220;DHT22;4151;51.110;7.020;2023-04-16T07:17:56;9.40;99.90
8220;DHT22;4151;51.110;7.020;2023-04-16T07:20:22;9.40;99.90
8220;DHT22;4151;51.110;7.020;2023-04-16T07:22:48;9.50;99.90
8220;DHT22;4151;51.110;7.020;2023-04-16T07:25:14;9.50;99.90
8220;DHT22;4151;51.110;7.020;2023-04-16T07:27:39;9.50;99.90
8220;DHT22;4151;51.110;7.020;2023-04-16T07:30:05;9.40;99.90
8220;DHT22;4151;51.110;7.020;2023-04-16T07:32:32;9.50;99.90
8220;DHT22;4151;51.110;7.020;2023-04-16T07:34:57;9.50;99.90
8220;DHT22;4151;51.110;7.020;2023-04-16T07:37:23;9.60;99.90
8220;DHT22;4151;51.110;7.020;2023-04-16T07:39:49;9.60;99.90
8220;DHT22;4151;51.110;7.020;2023-04-16T07:42:14;9.70;99.90
8220;DHT22;4151;51.110;7.020;2023-04-16T07:44:40;9.70;99.90
8220;DHT22;4151;51.110;7.020;2023-04-16T07:47:06;9.80;99.90
8220;DHT22;4151;51.110;7.020;2023-04-16T07:49:31;9.80;99.90
8220;DHT22;4151;51.110;7.020;2023-04-16T07:51:57;9.90;99.90
8220;DHT22;4151;51.110;7.020;2023-04-16T07:54:22;9.90;99.90
8220;DHT22;4151;51.110;7.020;2023-04-16T07:56:48;10.00;99.90
8220;DHT22;4151;51.110;7.020;2023-04-16T07:59:13;10.00;99.90
8220;DHT22;4151;51.110;7.020;2023-04-16T08:01:39;10.30;99.90
8220;DHT22;4151;51.110;7.020;2023-04-16T08:04:04;10.20;99.90
8220;DHT22;4151;51.110;7.020;2023-04-16T08:15:56;10.40;99.90
8220;DHT22;4151;51.110;7.020;2023-04-16T08:18:22;10.40;99.90
8220;DHT22;4151;51.110;7.020;2023-04-16T08:20:47;10.40;99.90
8220;DHT22;4151;51.110;7.020;2023-04-16T08:23:13;10.30;99.90
8220;DHT22;4151;51.110;7.020;2023-04-16T08:25:38;10.40;99.90
8220;DHT22;4151;51.110;7.020;2023-04-16T08:28:04;10.50;99.90
8220;DHT22;4151;51.110;7.020;2023-04-16T08:30:29;10.50;99.90
8220;DHT22;4151;51.110;7.020;2023-04-16T08:32:55;10.70;99.90
8220;DHT22;4151;51.110;7.020;2023-04-16T08:35:21;10.90;99.90
8220;DHT22;4151;51.110;7.020;2023-04-16T08:37:47;11.00;99.90
8220;DHT22;4151;51.110;7.020;2023-04-16T08:40:12;11.10;99.90
8220;DHT22;4151;51.110;7.020;2023-04-16T08:42:43;11.20;99.90
8220;DHT22;4151;51.110;7.020;2023-04-16T08:45:14;11.30;99.90
8220;DHT22;4151;51.110;7.020;2023-04-16T08:47:47;11.40;99.90
8220;DHT22;4151;51.110;7.020;2023-04-16T08:50:17;11.50;99.90
8220;DHT22;4151;51.110;7.020;2023-04-16T08:52:55;11.70;99.90
8220;DHT22;4151;51.110;7.020;2023-04-16T08:55:26;11.80;99.90
8220;DHT22;4151;51.110;7.020;2023-04-16T08:57:58;11.80;99.90
8220;DHT22;4151;51.110;7.020;2023-04-16T09:00:25;11.80;99.90
8220;DHT22;4151;51.110;7.020;2023-04-16T09:02:52;11.90;99.90
8220;DHT22;4151;51.110;7.020;2023-04-16T09:05:18;11.60;99.90
8220;DHT22;4151;51.110;7.020;2023-04-16T09:07:46;11.60;99.90
8220;DHT22;4151;51.110;7.020;2023-04-16T09:10:14;11.60;99.90
8220;DHT22;4151;51.110;7.020;2023-04-16T09:12:43;11.60;99.90
8220;DHT22;4151;51.110;7.020;2023-04-16T09:15:10;11.50;99.90
8220;DHT22;4151;51.110;7.020;2023-04-16T09:20:24;11.50;99.90
8220;DHT22;4151;51.110;7.020;2023-04-16T09:22:50;11.70;99.90
8220;DHT22;4151;51.110;7.020;2023-04-16T09:25:16;11.80;99.90
8220;DHT22;4151;51.110;7.020;2023-04-16T09:27:41;11.90;99.90
8220;DHT22;4151;51.110;7.020;2023-04-16T09:30:21;11.90;99.90
8220;DHT22;4151;51.110;7.020;2023-04-16T09:32:47;11.80;99.90
8220;DHT22;4151;51.110;7.020;2023-04-16T09:35:13;11.90;99.90
8220;DHT22;4151;51.110;7.020;2023-04-16T09:37:42;12.00;99.90
8220;DHT22;4151;51.110;7.020;2023-04-16T09:40:07;11.70;99.90
8220;DHT22;4151;51.110;7.020;2023-04-16T09:42:35;11.40;99.90
8220;DHT22;4151;51.110;7.020;2023-04-16T09:45:01;11.60;99.90
8220;DHT22;4151;51.110;7.020;2023-04-16T09:47:43;11.60;99.90
8220;DHT22;4151;51.110;7.020;2023-04-16T09:50:16;11.60;99.90
8220;DHT22;4151;51.110;7.020;2023-04-16T09:52:44;11.70;99.90
8220;DHT22;4151;51.110;7.020;2023-04-16T09:55:10;11.80;99.90
8220;DHT22;4151;51.110;7.020;2023-04-16T09:57:36;11.70;99.90
8220;DHT22;4151;51.110;7.020;2023-04-16T10:00:07;11.70;99.90
8220;DHT22;4151;51.110;7.020;2023-04-16T10:02:34;11.50;99.90
8220;DHT22;4151;51.110;7.020;2023-04-16T10:05:03;11.70;99.90
8220;DHT22;4151;51.110;7.020;2023-04-16T10:07:32;12.00;99.90
8220;DHT22;4151;51.110;7.020;2023-04-16T10:09:58;12.10;99.90
8220;DHT22;4151;51.110;7.020;2023-04-16T10:12:23;12.10;99.90
8220;DHT22;4151;51.110;7.020;2023-04-16T10:14:49;12.20;99.90
8220;DHT22;4151;51.110;7.020;2023-04-16T10:17:15;12.20;99.90
8220;DHT22;4151;51.110;7.020;2023-04-16T10:19:41;12.20;99.90
8220;DHT22;4151;51.110;7.020;2023-04-16T10:22:07;12.10;99.90
8220;DHT22;4151;51.110;7.020;2023-04-16T10:24:33;12.00;99.90
8220;DHT22;4151;51.110;7.020;2023-04-16T10:27:00;12.20;99.90
8220;DHT22;4151;51.110;7.020;2023-04-16T10:29:27;12.30;99.90
8220;DHT22;4151;51.110;7.020;2023-04-16T10:31:54;12.30;99.90
8220;DHT22;4151;51.110;7.020;2023-04-16T10:34:21;12.50;99.90
8220;DHT22;4151;51.110;7.020;2023-04-16T10:36:48;12.80;99.90
8220;DHT22;4151;51.110;7.020;2023-04-16T10:39:21;13.00;99.90
8220;DHT22;4151;51.110;7.020;2023-04-16T10:41:47;13.30;99.90
8220;DHT22;4151;51.110;7.020;2023-04-16T10:44:16;13.40;99.90
8220;DHT22;4151;51.110;7.020;2023-04-16T10:46:44;13.40;99.90
8220;DHT22;4151;51.110;7.020;2023-04-16T10:49:24;13.30;99.90
8220;DHT22;4151;51.110;7.020;2023-04-16T10:52:30;13.50;99.90
8220;DHT22;4151;51.110;7.020;2023-04-16T10:54:51;13.50;99.90
8220;DHT22;4151;51.110;7.020;2023-04-16T10:57:19;13.80;99.90
8220;DHT22;4151;51.110;7.020;2023-04-16T10:59:45;13.80;99.90
8220;DHT22;4151;51.110;7.020;2023-04-16T11:02:15;14.00;99.90
8220;DHT22;4151;51.110;7.020;2023-04-16T11:04:42;14.00;99.90
8220;DHT22;4151;51.110;7.020;2023-04-16T11:09:56;14.20;99.90
8220;DHT22;4151;51.110;7.020;2023-04-16T11:12:24;14.40;99.90
8220;DHT22;4151;51.110;7.020;2023-04-16T11:14:59;14.50;99.90
8220;DHT22;4151;51.110;7.020;2023-04-16T11:17:40;15.00;99.90
8220;DHT22;4151;51.110;7.020;2023-04-16T11:20:07;15.10;99.90
8220;DHT22;4151;51.110;7.020;2023-04-16T11:22:36;15.10;99.90
8220;DHT22;4151;51.110;7.020;2023-04-16T11:25:02;15.00;99.90
8220;DHT22;4151;51.110;7.020;2023-04-16T11:27:29;14.70;99.90
8220;DHT22;4151;51.110;7.020;2023-04-16T11:30:06;14.40;99.90
8220;DHT22;4151;51.110;7.020;2023-04-16T11:32:35;14.10;99.90
8220;DHT22;4151;51.110;7.020;2023-04-16T11:35:01;14.00;99.90
8220;DHT22;4151;51.110;7.020;2023-04-16T11:37:37;13.80;99.90
8220;DHT22;4151;51.110;7.020;2023-04-16T11:40:04;13.60;99.90
8220;DHT22;4151;51.110;7.020;2023-04-16T11:42:34;13.50;99.90
8220;DHT22;4151;51.110;7.020;2023-04-16T11:45:06;13.70;99.90
8220;DHT22;4151;51.110;7.020;2023-04-16T11:47:47;13.90;99.90
8220;DHT22;4151;51.110;7.020;2023-04-16T11:50:23;14.00;99.90
8220;DHT22;4151;51.110;7.020;2023-04-16T11:52:51;14.20;99.90
8220;DHT22;4151;51.110;7.020;2023-04-16T11:55:17;14.10;99.90
8220;DHT22;4151;51.110;7.020;2023-04-16T11:57:43;14.10;99.90
8220;DHT22;4151;51.110;7.020;2023-04-16T12:00:10;14.00;99.90
8220;DHT22;4151;51.110;7.020;2023-04-16T12:07:56;16.40;99.90
8220;DHT22;4151;51.110;7.020;2023-04-16T12:10:21;17.30;99.90
8220;DHT22;4151;51.110;7.020;2023-04-16T12:12:47;17.30;99.90
8220;DHT22;4151;51.110;7.020;2023-04-16T12:15:13;17.40;99.90
8220;DHT22;4151;51.110;7.020;2023-04-16T12:17:38;17.80;99.90
8220;DHT22;4151;51.110;7.020;2023-04-16T12:20:14;18.00;99.90
8220;DHT22;4151;51.110;7.020;2023-04-16T12:22:44;17.40;99.90
8220;DHT22;4151;51.110;7.020;2023-04-16T12:25:13;16.90;99.90
8220;DHT22;4151;51.110;7.020;2023-04-16T12:27:49;16.40;99.90
8220;DHT22;4151;51.110;7.020;2023-04-16T12:30:18;15.60;99.90
8220;DHT22;4151;51.110;7.020;2023-04-16T12:32:47;15.30;99.90
8220;DHT22;4151;51.110;7.020;2023-04-16T12:35:13;15.10;99.90
8220;DHT22;4151;51.110;7.020;2023-04-16T12:37:53;15.10;99.90
8220;DHT22;4151;51.110;7.020;2023-04-16T12:40:18;14.90;99.90
8220;DHT22;4151;51.110;7.020;2023-04-16T12:42:44;14.80;99.90
8220;DHT22;4151;51.110;7.020;2023-04-16T12:45:10;14.70;99.90
8220;DHT22;4151;51.110;7.020;2023-04-16T12:47:36;14.80;99.90
8220;DHT22;4151;51.110;7.020;2023-04-16T12:50:01;14.80;99.90
8220;DHT22;4151;51.110;7.020;2023-04-16T12:52:27;14.80;99.90
8220;DHT22;4151;51.110;7.020;2023-04-16T12:54:53;14.60;99.90
8220;DHT22;4151;51.110;7.020;2023-04-16T12:57:19;14.60;99.90
8220;DHT22;4151;51.110;7.020;2023-04-16T12:59:44;14.70;99.90
8220;DHT22;4151;51.110;7.020;2023-04-16T13:02:11;14.80;99.90
8220;DHT22;4151;51.110;7.020;2023-04-16T13:04:37;14.60;99.90
8220;DHT22;4151;51.110;7.020;2023-04-16T13:07:02;14.40;99.90
8220;DHT22;4151;51.110;7.020;2023-04-16T13:09:28;14.30;99.90
8220;DHT22;4151;51.110;7.020;2023-04-16T13:11:53;14.30;99.90
8220;DHT22;4151;51.110;7.020;2023-04-16T13:14:19;14.30;99.90
8220;DHT22;4151;51.110;7.020;2023-04-16T13:16:45;14.30;99.90
8220;DHT22;4151;51.110;7.020;2023-04-16T13:19:11;14.30;99.90
8220;DHT22;4151;51.110;7.020;2023-04-16T13:21:36;14.50;99.90
8220;DHT22;4151;51.110;7.020;2023-04-16T13:24:02;14.70;99.90
8220;DHT22;4151;51.110;7.020;2023-04-16T13:26:28;14.90;99.90
8220;DHT22;4151;51.110;7.020;2023-04-16T13:28:53;15.20;99.90
8220;DHT22;4151;51.110;7.020;2023-04-16T13:31:19;15.50;99.90
8220;DHT22;4151;51.110;7.020;2023-04-16T13:33:46;15.40;99.90
8220;DHT22;4151;51.110;7.020;2023-04-16T13:36:12;15.40;99.90
8220;DHT22;4151;51.110;7.020;2023-04-16T13:38:38;15.30;99.90
8220;DHT22;4151;51.110;7.020;2023-04-16T13:41:03;15.00;99.90
8220;DHT22;4151;51.110;7.020;2023-04-16T13:43:30;14.70;99.90
8220;DHT22;4151;51.110;7.020;2023-04-16T13:45:56;14.60;99.90
8220;DHT22;4151;51.110;7.020;2023-04-16T13:48:22;14.50;99.90
8220;DHT22;4151;51.110;7.020;2023-04-16T13:50:47;14.60;99.90
8220;DHT22;4151;51.110;7.020;2023-04-16T13:53:13;14.50;99.90
8220;DHT22;4151;51.110;7.020;2023-04-16T13:55:38;14.60;99.90
8220;DHT22;4151;51.110;7.020;2023-04-16T13:58:04;14.50;99.90
8220;DHT22;4151;51.110;7.020;2023-04-16T14:00:31;14.60;99.90
8220;DHT22;4151;51.110;7.020;2023-04-16T14:02:56;14.60;99.90
8220;DHT22;4151;51.110;7.020;2023-04-16T14:05:22;14.30;99.90
8220;DHT22;4151;51.110;7.020;2023-04-16T14:07:48;14.30;99.90
8220;DHT22;4151;51.110;7.020;2023-04-16T14:10:13;14.20;99.90
8220;DHT22;4151;51.110;7.020;2023-04-16T14:12:40;14.10;99.90
8220;DHT22;4151;51.110;7.020;2023-04-16T14:15:06;13.90;99.90
8220;DHT22;4151;51.110;7.020;2023-04-16T14:17:34;14.00;99.90
8220;DHT22;4151;51.110;7.020;2023-04-16T14:19:59;13.80;99.90
8220;DHT22;4151;51.110;7.020;2023-04-16T14:22:25;13.80;99.90
8220;DHT22;4151;51.110;7.020;2023-04-16T14:24:51;13.90;99.90
8220;DHT22;4151;51.110;7.020;2023-04-16T14:27:16;14.00;99.90
8220;DHT22;4151;51.110;7.020;2023-04-16T14:29:42;14.00;99.90
8220;DHT22;4151;51.110;7.020;2023-04-16T14:32:08;13.90;99.90
8220;DHT22;4151;51.110;7.020;2023-04-16T14:34:34;13.80;99.90
8220;DHT22;4151;51.110;7.020;2023-04-16T14:36:59;13.80;99.90
8220;DHT22;4151;51.110;7.020;2023-04-16T14:39:25;14.00;99.90
8220;DHT22;4151;51.110;7.020;2023-04-16T14:41:51;13.90;99.90
8220;DHT22;4151;51.110;7.020;2023-04-16T14:44:16;14.00;99.90
8220;DHT22;4151;51.110;7.020;2023-04-16T14:46:42;14.00;99.90
8220;DHT22;4151;51.110;7.020;2023-04-16T14:49:08;14.20;99.90
8220;DHT22;4151;51.110;7.020;2023-04-16T14:51:34;14.20;99.90
8220;DHT22;4151;51.110;7.020;2023-04-16T14:54:01;14.30;99.90
8220;DHT22;4151;51.110;7.020;2023-04-16T14:56:27;14.30;99.90
8220;DHT22;4151;51.110;7.020;2023-04-16T14:58:52;14.30;99.90
8220;DHT22;4151;51.110;7.020;2023-04-16T15:01:18;14.40;99.90
8220;DHT22;4151;51.110;7.020;2023-04-16T15:03:43;14.50;99.90
8220;DHT22;4151;51.110;7.020;2023-04-16T15:06:09;14.50;99.90
8220;DHT22;4151;51.110;7.020;2023-04-16T15:08:35;14.60;99.90
8220;DHT22;4151;51.110;7.020;2023-04-16T15:11:00;15.00;99.90
8220;DHT22;4151;51.110;7.020;2023-04-16T15:13:26;15.20;99.90
8220;DHT22;4151;51.110;7.020;2023-04-16T15:16:01;15.70;99.90
8220;DHT22;4151;51.110;7.020;2023-04-16T15:18:27;15.80;99.90
8220;DHT22;4151;51.110;7.020;2023-04-16T15:20:53;15.60;99.90
8220;DHT22;4151;51.110;7.020;2023-04-16T15:23:19;15.20;99.90
8220;DHT22;4151;51.110;7.020;2023-04-16T15:25:45;15.20;99.90
8220;DHT22;4151;51.110;7.020;2023-04-16T15:28:11;15.20;99.90
8220;DHT22;4151;51.110;7.020;2023-04-16T15:30:38;15.10;99.90
8220;DHT22;4151;51.110;7.020;2023-04-16T15:33:05;15.10;99.90
8220;DHT22;4151;51.110;7.020;2023-04-16T15:35:31;15.00;99.90
8220;DHT22;4151;51.110;7.020;2023-04-16T15:37:57;15.50;99.90
8220;DHT22;4151;51.110;7.020;2023-04-16T15:40:23;16.00;99.90
8220;DHT22;4151;51.110;7.020;2023-04-16T15:42:49;16.00;99.90
8220;DHT22;4151;51.110;7.020;2023-04-16T15:45:15;16.70;99.90
8220;DHT22;4151;51.110;7.020;2023-04-16T15:47:41;18.80;99.90
8220;DHT22;4151;51.110;7.020;2023-04-16T15:50:09;20.70;99.90
8220;DHT22;4151;51.110;7.020;2023-04-16T15:52:35;21.60;99.90
8220;DHT22;4151;51.110;7.020;2023-04-16T15:55:03;21.10;99.90
8220;DHT22;4151;51.110;7.020;2023-04-16T15:57:28;21.00;99.90
8220;DHT22;4151;51.110;7.020;2023-04-16T15:59:54;21.70;99.90
8220;DHT22;4151;51.110;7.020;2023-04-16T16:02:20;22.60;99.90
8220;DHT22;4151;51.110;7.020;2023-04-16T16:04:45;23.50;99.90
8220;DHT22;4151;51.110;7.020;2023-04-16T16:07:11;23.00;99.90
8220;DHT22;4151;51.110;7.020;2023-04-16T16:09:37;22.90;99.90
8220;DHT22;4151;51.110;7.020;2023-04-16T16:12:02;22.80;99.90
8220;DHT22;4151;51.110;7.020;2023-04-16T16:14:28;22.60;99.90
8220;DHT22;4151;51.110;7.020;2023-04-16T16:16:54;23.10;99.90
8220;DHT22;4151;51.110;7.020;2023-04-16T16:19:19;23.50;99.90
8220;DHT22;4151;51.110;7.020;2023-04-16T16:21:45;23.60;99.90
8220;DHT22;4151;51.110;7.020;2023-04-16T16:24:11;24.20;99.90